sensor_id;sensor_type;location;lat;lon;timestamp;P1;durP1;ratioP1;P2;durP2;ratioP2
4290;SDS011;2159;50.906;7.152;2023-02-05T00:02:06;28.80;;;13.67;;
4290;SDS011;2159;50.906;7.152;2023-02-05T00:04:34;32.47;;;14.03;;
4290;SDS011;2159;50.906;7.152;2023-02-05T00:07:03;32.67;;;13.93;;
4290;SDS011;2159;50.906;7.152;2023-02-05T00:09:30;26.13;;;13.17;;
4290;SDS011;2159;50.906;7.152;2023-02-05T00:11:58;34.30;;;15.40;;
4290;SDS011;2159;50.906;7.152;2023-02-05T00:14:26;39.77;;;14.87;;
4290;SDS011;2159;50.906;7.152;2023-02-05T00:16:53;35.67;;;14.97;;
4290;SDS011;2159;50.906;7.152;2023-02-05T00:19:21;26.53;;;14.20;;
4290;SDS011;2159;50.906;7.152;2023-02-05T00:21:48;31.07;;;14.30;;
4290;SDS011;2159;50.906;7.152;2023-02-05T00:24:17;23.30;;;14.03;;
4290;SDS011;2159;50.906;7.152;2023-02-05T00:26:44;34.40;;;14.27;;
4290;SDS011;2159;50.906;7.152;2023-02-05T00:29:12;34.03;;;15.00;;
4290;SDS011;2159;50.906;7.152;2023-02-05T00:31:40;35.47;;;14.90;;
4290;SDS011;2159;50.906;7.152;2023-02-05T00:34:07;36.07;;;15.40;;
4290;SDS011;2159;50.906;7.152;2023-02-05T00:36:35;38.80;;;15.03;;
4290;SDS011;2159;50.906;7.152;2023-02-05T00:39:02;34.43;;;15.07;;
4290;SDS011;2159;50.906;7.152;2023-02-05T00:41:31;28.90;;;15.00;;
4290;SDS011;2159;50.906;7.152;2023-02-05T00:43:58;34.30;;;14.53;;
4290;SDS011;2159;50.906;7.152;2023-02-05T00:46:26;29.33;;;14.40;;
4290;SDS011;2159;50.906;7.152;2023-02-05T00:48:53;35.67;;;14.83;;
4290;SDS011;2159;50.906;7.152;2023-02-05T00:51:21;27.00;;;14.43;;
4290;SDS011;2159;50.906;7.152;2023-02-05T00:53:48;37.13;;;14.50;;
4290;SDS011;2159;50.906;7.152;2023-02-05T00:56:16;30.30;;;14.60;;
4290;SDS011;2159;50.906;7.152;2023-02-05T00:58:45;35.20;;;15.60;;
4290;SDS011;2159;50.906;7.152;2023-02-05T01:01:14;29.00;;;14.77;;
4290;SDS011;2159;50.906;7.152;2023-02-05T01:03:42;36.10;;;15.57;;
4290;SDS011;2159;50.906;7.152;2023-02-05T01:06:09;35.80;;;15.90;;
4290;SDS011;2159;50.906;7.152;2023-02-05T01:08:37;38.43;;;15.80;;
4290;SDS011;2159;50.906;7.152;2023-02-05T01:11:05;33.17;;;14.90;;
4290;SDS011;2159;50.906;7.152;2023-02-05T01:13:33;31.07;;;16.10;;
4290;SDS011;2159;50.906;7.152;2023-02-05T01:16:02;31.07;;;15.03;;
4290;SDS011;2159;50.906;7.152;2023-02-05T01:18:30;31.37;;;15.00;;
4290;SDS011;2159;50.906;7.152;2023-02-05T01:20:57;35.67;;;15.10;;
4290;SDS011;2159;50.906;7.152;2023-02-05T01:23:25;31.10;;;14.70;;
4290;SDS011;2159;50.906;7.152;2023-02-05T01:25:53;33.13;;;14.67;;
4290;SDS011;2159;50.906;7.152;2023-02-05T01:28:20;29.97;;;14.80;;
4290;SDS011;2159;50.906;7.152;2023-02-05T01:30:48;33.90;;;16.27;;
4290;SDS011;2159;50.906;7.152;2023-02-05T01:33:17;32.17;;;14.73;;
4290;SDS011;2159;50.906;7.152;2023-02-05T01:35:45;28.27;;;14.93;;
4290;SDS011;2159;50.906;7.152;2023-02-05T01:38:13;33.93;;;14.60;;
4290;SDS011;2159;50.906;7.152;2023-02-05T01:40:40;39.20;;;15.27;;
4290;SDS011;2159;50.906;7.152;2023-02-05T01:43:10;31.30;;;14.43;;
4290;SDS011;2159;50.906;7.152;2023-02-05T01:48:22;31.10;;;14.33;;
4290;SDS011;2159;50.906;7.152;2023-02-05T01:50:52;33.60;;;14.20;;
4290;SDS011;2159;50.906;7.152;2023-02-05T01:53:21;35.47;;;15.00;;
4290;SDS011;2159;50.906;7.152;2023-02-05T01:55:55;32.97;;;15.10;;
4290;SDS011;2159;50.906;7.152;2023-02-05T01:58:24;33.47;;;15.40;;
4290;SDS011;2159;50.906;7.152;2023-02-05T02:00:52;38.10;;;15.67;;
4290;SDS011;2159;50.906;7.152;2023-02-05T02:03:20;31.37;;;14.23;;
4290;SDS011;2159;50.906;7.152;2023-02-05T02:05:51;36.47;;;14.63;;
4290;SDS011;2159;50.906;7.152;2023-02-05T02:08:18;37.73;;;15.40;;
4290;SDS011;2159;50.906;7.152;2023-02-05T02:10:46;29.93;;;14.33;;
4290;SDS011;2159;50.906;7.152;2023-02-05T02:13:14;26.77;;;13.43;;
4290;SDS011;2159;50.906;7.152;2023-02-05T02:15:42;28.13;;;14.47;;
4290;SDS011;2159;50.906;7.152;2023-02-05T02:18:10;43.97;;;15.60;;
4290;SDS011;2159;50.906;7.152;2023-02-05T02:21:01;28.10;;;14.90;;
4290;SDS011;2159;50.906;7.152;2023-02-05T02:23:37;36.40;;;14.70;;
4290;SDS011;2159;50.906;7.152;2023-02-05T02:26:19;29.77;;;14.37;;
4290;SDS011;2159;50.906;7.152;2023-02-05T02:28:51;36.33;;;15.00;;
4290;SDS011;2159;50.906;7.152;2023-02-05T02:31:21;30.13;;;14.23;;
4290;SDS011;2159;50.906;7.152;2023-02-05T02:33:53;35.77;;;14.80;;
4290;SDS011;2159;50.906;7.152;2023-02-05T02:36:23;33.13;;;14.97;;
4290;SDS011;2159;50.906;7.152;2023-02-05T02:38:56;36.17;;;14.80;;
4290;SDS011;2159;50.906;7.152;2023-02-05T02:41:28;35.37;;;14.73;;
4290;SDS011;2159;50.906;7.152;2023-02-05T02:43:58;34.23;;;14.60;;
4290;SDS011;2159;50.906;7.152;2023-02-05T02:46:26;36.93;;;14.67;;
4290;SDS011;2159;50.906;7.152;2023-02-05T02:48:55;37.03;;;14.87;;
4290;SDS011;2159;50.906;7.152;2023-02-05T02:51:24;42.17;;;15.23;;
4290;SDS011;2159;50.906;7.152;2023-02-05T02:53:54;34.90;;;15.53;;
4290;SDS011;2159;50.906;7.152;2023-02-05T02:56:22;36.73;;;14.20;;
4290;SDS011;2159;50.906;7.152;2023-02-05T02:58:51;28.20;;;14.00;;
4290;SDS011;2159;50.906;7.152;2023-02-05T03:01:22;33.13;;;14.23;;
4290;SDS011;2159;50.906;7.152;2023-02-05T03:03:51;32.27;;;14.47;;
4290;SDS011;2159;50.906;7.152;2023-02-05T03:06:21;31.00;;;14.50;;
4290;SDS011;2159;50.906;7.152;2023-02-05T03:08:49;30.67;;;14.43;;
4290;SDS011;2159;50.906;7.152;2023-02-05T03:11:19;36.57;;;15.57;;
4290;SDS011;2159;50.906;7.152;2023-02-05T03:13:46;29.70;;;14.40;;
4290;SDS011;2159;50.906;7.152;2023-02-05T03:16:16;29.10;;;14.20;;
4290;SDS011;2159;50.906;7.152;2023-02-05T03:18:45;31.93;;;15.43;;
4290;SDS011;2159;50.906;7.152;2023-02-05T03:21:15;33.07;;;14.70;;
4290;SDS011;2159;50.906;7.152;2023-02-05T03:23:43;28.10;;;14.17;;
4290;SDS011;2159;50.906;7.152;2023-02-05T03:26:24;29.63;;;14.20;;
4290;SDS011;2159;50.906;7.152;2023-02-05T03:28:52;38.90;;;14.53;;
4290;SDS011;2159;50.906;7.152;2023-02-05T03:31:20;28.53;;;13.37;;
4290;SDS011;2159;50.906;7.152;2023-02-05T03:33:54;34.23;;;15.13;;
4290;SDS011;2159;50.906;7.152;2023-02-05T03:36:25;35.83;;;14.10;;
4290;SDS011;2159;50.906;7.152;2023-02-05T03:39:09;39.97;;;15.70;;
4290;SDS011;2159;50.906;7.152;2023-02-05T03:41:40;25.70;;;13.60;;
4290;SDS011;2159;50.906;7.152;2023-02-05T03:44:24;33.23;;;14.10;;
4290;SDS011;2159;50.906;7.152;2023-02-05T03:46:56;30.40;;;14.00;;
4290;SDS011;2159;50.906;7.152;2023-02-05T03:49:28;31.60;;;13.60;;
4290;SDS011;2159;50.906;7.152;2023-02-05T03:51:59;34.37;;;14.30;;
4290;SDS011;2159;50.906;7.152;2023-02-05T03:54:30;33.13;;;14.20;;
4290;SDS011;2159;50.906;7.152;2023-02-05T03:56:59;30.43;;;13.90;;
4290;SDS011;2159;50.906;7.152;2023-02-05T03:59:31;30.43;;;14.57;;
4290;SDS011;2159;50.906;7.152;2023-02-05T04:01:59;34.13;;;14.33;;
4290;SDS011;2159;50.906;7.152;2023-02-05T04:04:29;34.10;;;14.97;;
4290;SDS011;2159;50.906;7.152;2023-02-05T04:06:57;25.40;;;14.50;;
4290;SDS011;2159;50.906;7.152;2023-02-05T04:09:24;30.23;;;14.57;;
4290;SDS011;2159;50.906;7.152;2023-02-05T04:11:52;32.27;;;14.40;;
4290;SDS011;2159;50.906;7.152;2023-02-05T04:14:19;31.10;;;15.07;;
4290;SDS011;2159;50.906;7.152;2023-02-05T04:16:47;33.80;;;14.47;;
4290;SDS011;2159;50.906;7.152;2023-02-05T04:19:14;33.60;;;13.93;;
4290;SDS011;2159;50.906;7.152;2023-02-05T04:21:43;31.00;;;14.70;;
4290;SDS011;2159;50.906;7.152;2023-02-05T04:24:10;27.53;;;14.53;;
4290;SDS011;2159;50.906;7.152;2023-02-05T04:26:38;34.63;;;14.80;;
4290;SDS011;2159;50.906;7.152;2023-02-05T04:29:05;35.53;;;14.83;;
4290;SDS011;2159;50.906;7.152;2023-02-05T04:31:33;33.63;;;14.57;;
4290;SDS011;2159;50.906;7.152;2023-02-05T04:34:00;32.10;;;15.20;;
4290;SDS011;2159;50.906;7.152;2023-02-05T04:36:28;28.93;;;15.50;;
4290;SDS011;2159;50.906;7.152;2023-02-05T04:38:57;29.70;;;14.77;;
4290;SDS011;2159;50.906;7.152;2023-02-05T04:41:24;30.57;;;13.80;;
4290;SDS011;2159;50.906;7.152;2023-02-05T04:43:52;35.40;;;15.80;;
4290;SDS011;2159;50.906;7.152;2023-02-05T04:46:19;32.40;;;14.80;;
4290;SDS011;2159;50.906;7.152;2023-02-05T04:48:47;35.50;;;14.13;;
4290;SDS011;2159;50.906;7.152;2023-02-05T04:51:14;30.77;;;15.30;;
4290;SDS011;2159;50.906;7.152;2023-02-05T04:53:42;35.77;;;14.33;;
4290;SDS011;2159;50.906;7.152;2023-02-05T04:56:11;34.33;;;13.93;;
4290;SDS011;2159;50.906;7.152;2023-02-05T04:58:39;30.23;;;13.90;;
4290;SDS011;2159;50.906;7.152;2023-02-05T05:01:09;31.17;;;14.13;;
4290;SDS011;2159;50.906;7.152;2023-02-05T05:03:37;30.90;;;14.63;;
4290;SDS011;2159;50.906;7.152;2023-02-05T05:06:05;30.83;;;14.07;;
4290;SDS011;2159;50.906;7.152;2023-02-05T05:08:33;34.57;;;13.77;;
4290;SDS011;2159;50.906;7.152;2023-02-05T05:11:04;29.47;;;13.87;;
4290;SDS011;2159;50.906;7.152;2023-02-05T05:13:33;34.53;;;14.50;;
4290;SDS011;2159;50.906;7.152;2023-02-05T05:16:01;29.43;;;13.63;;
4290;SDS011;2159;50.906;7.152;2023-02-05T05:18:30;35.77;;;14.40;;
4290;SDS011;2159;50.906;7.152;2023-02-05T05:20:58;37.53;;;14.73;;
4290;SDS011;2159;50.906;7.152;2023-02-05T05:23:25;32.93;;;14.50;;
4290;SDS011;2159;50.906;7.152;2023-02-05T05:25:53;28.30;;;14.17;;
4290;SDS011;2159;50.906;7.152;2023-02-05T05:28:20;38.23;;;15.23;;
4290;SDS011;2159;50.906;7.152;2023-02-05T05:30:49;37.57;;;16.13;;
4290;SDS011;2159;50.906;7.152;2023-02-05T05:33:17;31.07;;;15.00;;
4290;SDS011;2159;50.906;7.152;2023-02-05T05:35:44;39.97;;;15.67;;
4290;SDS011;2159;50.906;7.152;2023-02-05T05:38:12;37.63;;;19.40;;
4290;SDS011;2159;50.906;7.152;2023-02-05T05:40:39;33.20;;;16.00;;
4290;SDS011;2159;50.906;7.152;2023-02-05T05:43:24;36.07;;;16.77;;
4290;SDS011;2159;50.906;7.152;2023-02-05T05:46:11;33.87;;;16.10;;
4290;SDS011;2159;50.906;7.152;2023-02-05T05:48:39;28.53;;;14.70;;
4290;SDS011;2159;50.906;7.152;2023-02-05T05:51:07;34.37;;;14.07;;
4290;SDS011;2159;50.906;7.152;2023-02-05T05:53:34;30.73;;;13.93;;
4290;SDS011;2159;50.906;7.152;2023-02-05T05:56:02;30.00;;;13.20;;
4290;SDS011;2159;50.906;7.152;2023-02-05T05:58:29;31.00;;;13.83;;
4290;SDS011;2159;50.906;7.152;2023-02-05T06:00:57;33.13;;;14.63;;
4290;SDS011;2159;50.906;7.152;2023-02-05T06:03:26;30.63;;;13.60;;
4290;SDS011;2159;50.906;7.152;2023-02-05T06:05:53;32.33;;;13.20;;
4290;SDS011;2159;50.906;7.152;2023-02-05T06:08:21;29.07;;;13.40;;
4290;SDS011;2159;50.906;7.152;2023-02-05T06:10:48;30.57;;;13.43;;
4290;SDS011;2159;50.906;7.152;2023-02-05T06:13:15;29.77;;;15.70;;
4290;SDS011;2159;50.906;7.152;2023-02-05T06:15:43;34.43;;;16.20;;
4290;SDS011;2159;50.906;7.152;2023-02-05T06:18:10;33.90;;;16.30;;
4290;SDS011;2159;50.906;7.152;2023-02-05T06:20:39;33.60;;;15.10;;
4290;SDS011;2159;50.906;7.152;2023-02-05T06:23:07;28.67;;;15.47;;
4290;SDS011;2159;50.906;7.152;2023-02-05T06:25:34;37.73;;;16.40;;
4290;SDS011;2159;50.906;7.152;2023-02-05T06:28:02;32.27;;;15.27;;
4290;SDS011;2159;50.906;7.152;2023-02-05T06:30:29;32.73;;;14.53;;
4290;SDS011;2159;50.906;7.152;2023-02-05T06:32:57;30.07;;;14.10;;
4290;SDS011;2159;50.906;7.152;2023-02-05T06:35:24;28.40;;;13.40;;
4290;SDS011;2159;50.906;7.152;2023-02-05T06:37:53;30.90;;;13.80;;
4290;SDS011;2159;50.906;7.152;2023-02-05T06:40:20;31.80;;;14.10;;
4290;SDS011;2159;50.906;7.152;2023-02-05T06:42:51;27.77;;;14.87;;
4290;SDS011;2159;50.906;7.152;2023-02-05T06:45:18;32.57;;;15.40;;
4290;SDS011;2159;50.906;7.152;2023-02-05T06:47:46;28.93;;;14.50;;
4290;SDS011;2159;50.906;7.152;2023-02-05T06:50:13;29.63;;;13.93;;
4290;SDS011;2159;50.906;7.152;2023-02-05T06:52:41;31.80;;;14.30;;
4290;SDS011;2159;50.906;7.152;2023-02-05T06:55:10;26.30;;;13.33;;
4290;SDS011;2159;50.906;7.152;2023-02-05T06:57:37;31.20;;;14.17;;
4290;SDS011;2159;50.906;7.152;2023-02-05T07:00:05;28.17;;;13.80;;
4290;SDS011;2159;50.906;7.152;2023-02-05T07:02:33;29.13;;;14.27;;
4290;SDS011;2159;50.906;7.152;2023-02-05T07:05:00;26.27;;;13.53;;
4290;SDS011;2159;50.906;7.152;2023-02-05T07:07:28;26.20;;;14.17;;
4290;SDS011;2159;50.906;7.152;2023-02-05T07:09:55;25.87;;;13.90;;
4290;SDS011;2159;50.906;7.152;2023-02-05T07:12:24;29.10;;;13.50;;
4290;SDS011;2159;50.906;7.152;2023-02-05T07:14:52;33.10;;;14.37;;
4290;SDS011;2159;50.906;7.152;2023-02-05T07:17:19;31.43;;;13.30;;
4290;SDS011;2159;50.906;7.152;2023-02-05T07:19:47;30.30;;;13.30;;
4290;SDS011;2159;50.906;7.152;2023-02-05T07:22:14;30.03;;;14.40;;
4290;SDS011;2159;50.906;7.152;2023-02-05T07:24:42;26.73;;;13.33;;
4290;SDS011;2159;50.906;7.152;2023-02-05T07:27:09;29.43;;;13.40;;
4290;SDS011;2159;50.906;7.152;2023-02-05T07:29:38;31.80;;;14.03;;
4290;SDS011;2159;50.906;7.152;2023-02-05T07:32:06;30.87;;;14.30;;
4290;SDS011;2159;50.906;7.152;2023-02-05T07:34:33;28.50;;;13.73;;
4290;SDS011;2159;50.906;7.152;2023-02-05T07:37:01;30.10;;;14.30;;
4290;SDS011;2159;50.906;7.152;2023-02-05T07:39:28;31.20;;;15.20;;
4290;SDS011;2159;50.906;7.152;2023-02-05T07:41:56;34.60;;;15.00;;
4290;SDS011;2159;50.906;7.152;2023-02-05T07:44:24;35.73;;;14.80;;
4290;SDS011;2159;50.906;7.152;2023-02-05T07:46:52;33.00;;;14.13;;
4290;SDS011;2159;50.906;7.152;2023-02-05T07:49:20;33.40;;;14.87;;
4290;SDS011;2159;50.906;7.152;2023-02-05T07:51:47;29.67;;;14.00;;
4290;SDS011;2159;50.906;7.152;2023-02-05T07:54:15;37.30;;;14.77;;
4290;SDS011;2159;50.906;7.152;2023-02-05T07:56:42;32.80;;;14.30;;
4290;SDS011;2159;50.906;7.152;2023-02-05T07:59:10;29.60;;;15.57;;
4290;SDS011;2159;50.906;7.152;2023-02-05T08:01:37;31.80;;;14.30;;
4290;SDS011;2159;50.906;7.152;2023-02-05T08:04:06;32.90;;;14.57;;
4290;SDS011;2159;50.906;7.152;2023-02-05T08:06:34;27.57;;;14.50;;
4290;SDS011;2159;50.906;7.152;2023-02-05T08:09:02;37.73;;;16.23;;
4290;SDS011;2159;50.906;7.152;2023-02-05T08:11:29;45.17;;;17.60;;
4290;SDS011;2159;50.906;7.152;2023-02-05T08:13:57;36.73;;;17.77;;
4290;SDS011;2159;50.906;7.152;2023-02-05T08:16:26;43.50;;;18.60;;
4290;SDS011;2159;50.906;7.152;2023-02-05T08:18:54;49.60;;;19.43;;
4290;SDS011;2159;50.906;7.152;2023-02-05T08:21:23;42.20;;;19.90;;
4290;SDS011;2159;50.906;7.152;2023-02-05T08:23:50;45.23;;;19.13;;
4290;SDS011;2159;50.906;7.152;2023-02-05T08:26:19;44.77;;;19.60;;
4290;SDS011;2159;50.906;7.152;2023-02-05T08:28:46;47.30;;;19.20;;
4290;SDS011;2159;50.906;7.152;2023-02-05T08:31:15;42.77;;;18.33;;
4290;SDS011;2159;50.906;7.152;2023-02-05T08:33:43;43.30;;;19.20;;
4290;SDS011;2159;50.906;7.152;2023-02-05T08:36:10;42.07;;;19.27;;
4290;SDS011;2159;50.906;7.152;2023-02-05T08:38:39;46.50;;;19.97;;
4290;SDS011;2159;50.906;7.152;2023-02-05T08:41:08;45.00;;;20.50;;
4290;SDS011;2159;50.906;7.152;2023-02-05T08:43:38;46.43;;;19.93;;
4290;SDS011;2159;50.906;7.152;2023-02-05T08:46:07;44.13;;;19.03;;
4290;SDS011;2159;50.906;7.152;2023-02-05T08:48:34;39.70;;;19.47;;
4290;SDS011;2159;50.906;7.152;2023-02-05T08:51:02;41.43;;;18.40;;
4290;SDS011;2159;50.906;7.152;2023-02-05T08:53:30;38.40;;;18.30;;
4290;SDS011;2159;50.906;7.152;2023-02-05T08:55:59;39.40;;;18.30;;
4290;SDS011;2159;50.906;7.152;2023-02-05T08:58:27;35.20;;;16.30;;
4290;SDS011;2159;50.906;7.152;2023-02-05T09:00:59;38.60;;;17.17;;
4290;SDS011;2159;50.906;7.152;2023-02-05T09:03:26;37.50;;;17.87;;
4290;SDS011;2159;50.906;7.152;2023-02-05T09:05:54;36.67;;;17.90;;
4290;SDS011;2159;50.906;7.152;2023-02-05T09:08:21;36.90;;;17.80;;
4290;SDS011;2159;50.906;7.152;2023-02-05T09:10:49;34.97;;;18.20;;
4290;SDS011;2159;50.906;7.152;2023-02-05T09:13:18;36.37;;;18.43;;
4290;SDS011;2159;50.906;7.152;2023-02-05T09:15:46;33.13;;;16.83;;
4290;SDS011;2159;50.906;7.152;2023-02-05T09:18:14;25.73;;;14.77;;
4290;SDS011;2159;50.906;7.152;2023-02-05T09:20:42;25.47;;;14.23;;
4290;SDS011;2159;50.906;7.152;2023-02-05T09:23:10;37.27;;;15.50;;
4290;SDS011;2159;50.906;7.152;2023-02-05T09:25:38;28.17;;;14.33;;
4290;SDS011;2159;50.906;7.152;2023-02-05T09:28:06;23.90;;;13.40;;
4290;SDS011;2159;50.906;7.152;2023-02-05T09:30:36;21.77;;;12.70;;
4290;SDS011;2159;50.906;7.152;2023-02-05T09:33:04;23.53;;;12.83;;
4290;SDS011;2159;50.906;7.152;2023-02-05T09:35:31;24.17;;;12.80;;
4290;SDS011;2159;50.906;7.152;2023-02-05T09:37:59;18.37;;;11.60;;
4290;SDS011;2159;50.906;7.152;2023-02-05T09:40:30;21.90;;;11.77;;
4290;SDS011;2159;50.906;7.152;2023-02-05T09:42:59;13.07;;;9.30;;
4290;SDS011;2159;50.906;7.152;2023-02-05T09:45:41;14.10;;;9.00;;
4290;SDS011;2159;50.906;7.152;2023-02-05T09:48:19;10.50;;;7.80;;
4290;SDS011;2159;50.906;7.152;2023-02-05T09:50:50;11.60;;;8.17;;
4290;SDS011;2159;50.906;7.152;2023-02-05T09:53:18;7.73;;;5.80;;
4290;SDS011;2159;50.906;7.152;2023-02-05T09:55:47;9.00;;;6.80;;
4290;SDS011;2159;50.906;7.152;2023-02-05T09:58:16;5.70;;;4.70;;
4290;SDS011;2159;50.906;7.152;2023-02-05T10:00:46;5.43;;;3.70;;
4290;SDS011;2159;50.906;7.152;2023-02-05T10:03:18;5.00;;;4.00;;
4290;SDS011;2159;50.906;7.152;2023-02-05T10:05:53;6.57;;;3.27;;
4290;SDS011;2159;50.906;7.152;2023-02-05T10:08:23;2.80;;;2.60;;
4290;SDS011;2159;50.906;7.152;2023-02-05T10:10:53;2.87;;;2.67;;
4290;SDS011;2159;50.906;7.152;2023-02-05T10:13:31;3.80;;;2.87;;
4290;SDS011;2159;50.906;7.152;2023-02-05T10:19:02;3.27;;;3.07;;
4290;SDS011;2159;50.906;7.152;2023-02-05T10:21:38;3.43;;;3.13;;
4290;SDS011;2159;50.906;7.152;2023-02-05T10:24:13;4.60;;;4.20;;
4290;SDS011;2159;50.906;7.152;2023-02-05T10:26:43;3.97;;;3.58;;
4290;SDS011;2159;50.906;7.152;2023-02-05T10:29:14;5.40;;;3.63;;
4290;SDS011;2159;50.906;7.152;2023-02-05T10:31:43;5.47;;;3.90;;
4290;SDS011;2159;50.906;7.152;2023-02-05T10:34:23;4.43;;;4.03;;
4290;SDS011;2159;50.906;7.152;2023-02-05T10:36:54;4.60;;;4.20;;
4290;SDS011;2159;50.906;7.152;2023-02-05T10:39:24;4.40;;;3.80;;
4290;SDS011;2159;50.906;7.152;2023-02-05T10:41:52;4.50;;;3.93;;
4290;SDS011;2159;50.906;7.152;2023-02-05T10:44:24;4.30;;;3.83;;
4290;SDS011;2159;50.906;7.152;2023-02-05T10:46:54;8.60;;;4.07;;
4290;SDS011;2159;50.906;7.152;2023-02-05T10:49:25;7.10;;;4.30;;
4290;SDS011;2159;50.906;7.152;2023-02-05T10:51:55;4.53;;;4.17;;
4290;SDS011;2159;50.906;7.152;2023-02-05T10:54:23;4.00;;;3.60;;
4290;SDS011;2159;50.906;7.152;2023-02-05T10:56:52;6.33;;;4.20;;
4290;SDS011;2159;50.906;7.152;2023-02-05T10:59:20;7.07;;;4.60;;
4290;SDS011;2159;50.906;7.152;2023-02-05T11:01:48;4.20;;;3.80;;
4290;SDS011;2159;50.906;7.152;2023-02-05T11:04:18;7.03;;;4.20;;
4290;SDS011;2159;50.906;7.152;2023-02-05T11:06:50;5.60;;;4.33;;
4290;SDS011;2159;50.906;7.152;2023-02-05T11:09:28;6.80;;;4.27;;
4290;SDS011;2159;50.906;7.152;2023-02-05T11:11:56;9.53;;;4.40;;
4290;SDS011;2159;50.906;7.152;2023-02-05T11:14:26;9.43;;;5.00;;
4290;SDS011;2159;50.906;7.152;2023-02-05T11:16:54;10.30;;;4.47;;
4290;SDS011;2159;50.906;7.152;2023-02-05T11:19:23;10.90;;;5.43;;
4290;SDS011;2159;50.906;7.152;2023-02-05T11:21:53;7.00;;;4.77;;
4290;SDS011;2159;50.906;7.152;2023-02-05T11:24:22;8.13;;;5.27;;
4290;SDS011;2159;50.906;7.152;2023-02-05T11:26:51;10.17;;;5.03;;
4290;SDS011;2159;50.906;7.152;2023-02-05T11:29:37;7.63;;;5.13;;
4290;SDS011;2159;50.906;7.152;2023-02-05T11:32:04;5.93;;;5.30;;
4290;SDS011;2159;50.906;7.152;2023-02-05T11:34:44;7.37;;;5.40;;
4290;SDS011;2159;50.906;7.152;2023-02-05T11:37:14;8.83;;;5.27;;
4290;SDS011;2159;50.906;7.152;2023-02-05T11:39:42;11.87;;;5.70;;
4290;SDS011;2159;50.906;7.152;2023-02-05T11:42:14;10.47;;;5.60;;
4290;SDS011;2159;50.906;7.152;2023-02-05T11:44:45;7.40;;;5.00;;
4290;SDS011;2159;50.906;7.152;2023-02-05T11:47:17;8.57;;;5.03;;
4290;SDS011;2159;50.906;7.152;2023-02-05T11:49:48;9.00;;;5.43;;
4290;SDS011;2159;50.906;7.152;2023-02-05T11:52:24;9.50;;;5.27;;
4290;SDS011;2159;50.906;7.152;2023-02-05T11:54:52;5.80;;;3.90;;
4290;SDS011;2159;50.906;7.152;2023-02-05T11:57:28;5.80;;;3.80;;
4290;SDS011;2159;50.906;7.152;2023-02-05T11:59:57;6.50;;;4.17;;
4290;SDS011;2159;50.906;7.152;2023-02-05T12:02:27;8.10;;;4.37;;
4290;SDS011;2159;50.906;7.152;2023-02-05T12:04:56;4.87;;;4.00;;
4290;SDS011;2159;50.906;7.152;2023-02-05T12:07:26;8.43;;;4.10;;
4290;SDS011;2159;50.906;7.152;2023-02-05T12:09:55;6.90;;;4.00;;
4290;SDS011;2159;50.906;7.152;2023-02-05T12:12:26;11.67;;;4.53;;
4290;SDS011;2159;50.906;7.152;2023-02-05T12:14:59;11.87;;;4.60;;
4290;SDS011;2159;50.906;7.152;2023-02-05T12:17:32;10.47;;;4.70;;
4290;SDS011;2159;50.906;7.152;2023-02-05T12:20:03;7.70;;;4.57;;
4290;SDS011;2159;50.906;7.152;2023-02-05T12:22:44;8.07;;;4.60;;
4290;SDS011;2159;50.906;7.152;2023-02-05T12:25:18;5.83;;;4.50;;
4290;SDS011;2159;50.906;7.152;2023-02-05T12:27:56;7.47;;;4.80;;
4290;SDS011;2159;50.906;7.152;2023-02-05T12:30:33;5.37;;;4.23;;
4290;SDS011;2159;50.906;7.152;2023-02-05T12:33:10;4.90;;;4.10;;
4290;SDS011;2159;50.906;7.152;2023-02-05T12:35:46;7.90;;;4.00;;
4290;SDS011;2159;50.906;7.152;2023-02-05T12:38:17;8.30;;;4.07;;
4290;SDS011;2159;50.906;7.152;2023-02-05T12:41:01;8.17;;;4.37;;
4290;SDS011;2159;50.906;7.152;2023-02-05T12:43:36;9.80;;;4.80;;
4290;SDS011;2159;50.906;7.152;2023-02-05T12:46:06;9.60;;;4.53;;
4290;SDS011;2159;50.906;7.152;2023-02-05T12:48:41;8.13;;;4.47;;
4290;SDS011;2159;50.906;7.152;2023-02-05T12:51:18;8.63;;;4.60;;
4290;SDS011;2159;50.906;7.152;2023-02-05T12:53:55;8.53;;;4.67;;
4290;SDS011;2159;50.906;7.152;2023-02-05T12:56:30;7.10;;;4.00;;
4290;SDS011;2159;50.906;7.152;2023-02-05T12:59:02;6.77;;;4.13;;
4290;SDS011;2159;50.906;7.152;2023-02-05T13:01:34;7.80;;;4.57;;
4290;SDS011;2159;50.906;7.152;2023-02-05T13:04:03;5.27;;;3.83;;
4290;SDS011;2159;50.906;7.152;2023-02-05T13:06:33;7.60;;;4.20;;
4290;SDS011;2159;50.906;7.152;2023-02-05T13:09:05;8.50;;;4.17;;
4290;SDS011;2159;50.906;7.152;2023-02-05T13:11:35;5.17;;;4.20;;
4290;SDS011;2159;50.906;7.152;2023-02-05T13:14:05;9.47;;;4.20;;
4290;SDS011;2159;50.906;7.152;2023-02-05T13:16:34;4.70;;;4.00;;
4290;SDS011;2159;50.906;7.152;2023-02-05T13:19:11;4.60;;;3.63;;
4290;SDS011;2159;50.906;7.152;2023-02-05T13:21:40;6.40;;;3.97;;
4290;SDS011;2159;50.906;7.152;2023-02-05T13:24:30;8.27;;;3.63;;
4290;SDS011;2159;50.906;7.152;2023-02-05T13:27:18;5.60;;;3.33;;
4290;SDS011;2159;50.906;7.152;2023-02-05T13:30:05;4.00;;;3.17;;
4290;SDS011;2159;50.906;7.152;2023-02-05T13:32:35;5.63;;;3.33;;
4290;SDS011;2159;50.906;7.152;2023-02-05T13:35:05;4.37;;;3.17;;
4290;SDS011;2159;50.906;7.152;2023-02-05T13:37:46;8.10;;;3.63;;
4290;SDS011;2159;50.906;7.152;2023-02-05T13:46:00;5.43;;;4.20;;
4290;SDS011;2159;50.906;7.152;2023-02-05T13:51:15;6.77;;;3.60;;
4290;SDS011;2159;50.906;7.152;2023-02-05T13:56:36;3.93;;;3.33;;
4290;SDS011;2159;50.906;7.152;2023-02-05T13:59:09;3.80;;;3.50;;
4290;SDS011;2159;50.906;7.152;2023-02-05T14:01:41;6.20;;;4.20;;
4290;SDS011;2159;50.906;7.152;2023-02-05T14:04:15;4.17;;;3.77;;
4290;SDS011;2159;50.906;7.152;2023-02-05T14:06:45;5.90;;;3.40;;
4290;SDS011;2159;50.906;7.152;2023-02-05T14:09:18;4.53;;;4.23;;
4290;SDS011;2159;50.906;7.152;2023-02-05T14:11:53;4.53;;;4.23;;
4290;SDS011;2159;50.906;7.152;2023-02-05T14:14:31;4.10;;;3.70;;
4290;SDS011;2159;50.906;7.152;2023-02-05T14:17:02;3.90;;;3.60;;
4290;SDS011;2159;50.906;7.152;2023-02-05T14:19:49;3.90;;;3.60;;
4290;SDS011;2159;50.906;7.152;2023-02-05T14:22:32;4.00;;;3.70;;
4290;SDS011;2159;50.906;7.152;2023-02-05T14:25:00;3.97;;;3.57;;
4290;SDS011;2159;50.906;7.152;2023-02-05T14:33:10;5.00;;;3.70;;
4290;SDS011;2159;50.906;7.152;2023-02-05T14:35:53;3.37;;;3.17;;
4290;SDS011;2159;50.906;7.152;2023-02-05T14:38:21;3.40;;;3.10;;
4290;SDS011;2159;50.906;7.152;2023-02-05T14:41:00;4.50;;;3.33;;
4290;SDS011;2159;50.906;7.152;2023-02-05T14:43:29;5.40;;;3.57;;
4290;SDS011;2159;50.906;7.152;2023-02-05T14:45:58;6.73;;;3.43;;
4290;SDS011;2159;50.906;7.152;2023-02-05T14:48:30;3.23;;;3.03;;
4290;SDS011;2159;50.906;7.152;2023-02-05T14:51:02;3.73;;;2.77;;
4290;SDS011;2159;50.906;7.152;2023-02-05T14:53:30;3.43;;;2.90;;
4290;SDS011;2159;50.906;7.152;2023-02-05T14:55:59;2.80;;;2.60;;
4290;SDS011;2159;50.906;7.152;2023-02-05T14:58:28;3.83;;;3.10;;
4290;SDS011;2159;50.906;7.152;2023-02-05T15:03:45;2.80;;;2.60;;
4290;SDS011;2159;50.906;7.152;2023-02-05T15:06:13;3.17;;;2.97;;
4290;SDS011;2159;50.906;7.152;2023-02-05T15:08:48;3.83;;;2.97;;
4290;SDS011;2159;50.906;7.152;2023-02-05T15:11:19;3.30;;;2.53;;
4290;SDS011;2159;50.906;7.152;2023-02-05T15:16:34;4.40;;;2.70;;
4290;SDS011;2159;50.906;7.152;2023-02-05T15:19:05;4.30;;;2.53;;
4290;SDS011;2159;50.906;7.152;2023-02-05T15:21:34;3.33;;;2.03;;
4290;SDS011;2159;50.906;7.152;2023-02-05T15:24:04;3.00;;;2.40;;
4290;SDS011;2159;50.906;7.152;2023-02-05T15:26:38;3.70;;;2.53;;
4290;SDS011;2159;50.906;7.152;2023-02-05T15:29:11;3.97;;;2.50;;
4290;SDS011;2159;50.906;7.152;2023-02-05T15:31:40;4.40;;;2.40;;
4290;SDS011;2159;50.906;7.152;2023-02-05T15:34:29;3.67;;;2.67;;
4290;SDS011;2159;50.906;7.152;2023-02-05T15:36:58;4.20;;;2.47;;
4290;SDS011;2159;50.906;7.152;2023-02-05T15:39:29;3.63;;;2.50;;
4290;SDS011;2159;50.906;7.152;2023-02-05T15:41:57;2.50;;;2.40;;
4290;SDS011;2159;50.906;7.152;2023-02-05T15:44:26;2.90;;;1.90;;